Virgo Phoenix — 3FMO8 — position and weather

sailwx.info

Track history (hours):
 
Tides and Currents Weather Stations Pressure Air Temp Water Temp Dewpoint Dewpoint Depression Visibility Wind Speed Wind Dir Waves Ship Positions

Virgo Phoenix

Last reported at 2017-Jun-26 05:55 UTC. Time now 2017-Jun-28 22:43 UTC.
Position N 35°14' E 139°46'.

Length 96 m; draft 5.6 m.

Type: Ship (hazmat cat C). MMSI: 370795000.

Date/timePositionNaut miles runAvg speedWind from/ knotsBaromVisibWave heightAir tempDewpointWater temp
2017-Jun-26 05:55N 35°14' E 139°46'511.8
2017-Jun-26 05:30N 35°18' E 139°44'612.5
2017-Jun-26 05:01N 35°25' E 139°43'612.7
2017-Jun-26 04:30N 35°30' E 139°48'2 1.0
2017-Jun-26 02:13N 35°31' E 139°46'0 0.0
2017-Jun-26 01:55N 35°31' E 139°46'0 0.0
2017-Jun-26 01:25N 35°31' E 139°46'0 0.0
2017-Jun-26 00:55N 35°31' E 139°46'0 0.0
2017-Jun-26 00:25N 35°31' E 139°46'0 0.0
2017-Jun-25 23:55N 35°31' E 139°46'0 0.0
2017-Jun-25 23:29N 35°31' E 139°46'2 4.7
2017-Jun-25 23:00N 35°30' E 139°44'2 4.7
2017-Jun-25 22:31N 35°28' E 139°45'1 2.4
2017-Jun-25 21:58N 35°29' E 139°46'0 0.1
2017-Jun-25 21:28N 35°29' E 139°46'0 0.1
2017-Jun-25 20:58N 35°29' E 139°46'0 0.0
2017-Jun-25 20:28N 35°29' E 139°46'0 0.0
2017-Jun-25 19:58N 35°29' E 139°46'0 0.0
2017-Jun-25 19:28N 35°29' E 139°46'0 0.0
2017-Jun-25 18:58N 35°29' E 139°46'0 0.0
2017-Jun-25 18:28N 35°29' E 139°46'0 0.0
2017-Jun-25 17:58N 35°29' E 139°46'0 0.0
2017-Jun-25 17:28N 35°29' E 139°46'0 0.0
2017-Jun-25 16:58N 35°29' E 139°46'0 0.0
2017-Jun-25 16:28N 35°29' E 139°46'0 0.0
2017-Jun-25 15:58N 35°29' E 139°46'0 0.0
2017-Jun-25 15:28N 35°29' E 139°46'0 0.1
2017-Jun-25 14:58N 35°29' E 139°46'0 0.0
2017-Jun-25 14:28N 35°29' E 139°46'0 0.0
2017-Jun-25 13:28N 35°29' E 139°46'0 0.0
2017-Jun-25 12:58N 35°29' E 139°46'0 0.1
2017-Jun-25 12:28N 35°29' E 139°46'0 0.1
2017-Jun-25 11:58N 35°29' E 139°46'0 0.0
2017-Jun-25 11:28N 35°29' E 139°46'0 0.1
2017-Jun-25 10:58N 35°29' E 139°46'0 0.0
2017-Jun-25 10:28N 35°29' E 139°46'0 0.0
2017-Jun-25 09:58N 35°29' E 139°46'0 0.1
2017-Jun-25 09:28N 35°29' E 139°46'0 0.0
2017-Jun-25 08:58N 35°29' E 139°46'0 0.0
2017-Jun-25 08:28N 35°29' E 139°46'0 0.0
2017-Jun-25 07:58N 35°29' E 139°46'0 0.0
2017-Jun-25 07:28N 35°29' E 139°46'0 0.1
2017-Jun-25 06:58N 35°29' E 139°46'0 0.0
2017-Jun-25 06:28N 35°29' E 139°46'0 0.0
2017-Jun-25 05:58N 35°29' E 139°46'0 0.0
2017-Jun-25 05:28N 35°29' E 139°46'0 0.1
2017-Jun-25 04:58N 35°29' E 139°46'0 0.1
2017-Jun-25 04:28N 35°29' E 139°46'0 0.0
2017-Jun-25 03:58N 35°28' E 139°46'0 0.1
2017-Jun-25 03:28N 35°28' E 139°46'0 0.0
2017-Jun-25 02:58N 35°28' E 139°46'0 0.0
2017-Jun-25 02:28N 35°28' E 139°46'0 0.0
2017-Jun-25 01:58N 35°28' E 139°46'0 0.0
2017-Jun-25 01:28N 35°28' E 139°46'2 4.2
2017-Jun-25 01:00N 35°27' E 139°46'5 9.5
2017-Jun-25 00:30N 35°22' E 139°45'511.0
2017-Jun-25 00:00N 35°16' E 139°46'611.2
2017-Jun-24 23:30N 35°11' E 139°47'245 6.2
2017-Jun-23 08:05N 34°08' E 134°59'113.8
2017-Jun-23 08:00N 34°09' E 134°59'2313.1
2017-Jun-23 06:15N 34°30' E 135°11'414.0
2017-Jun-23 06:00N 34°32' E 135°14'713.4
2017-Jun-23 05:30N 34°39' E 135°16'4 7.3
2017-Jun-23 05:00N 34°42' E 135°15'0 0.0
2017-Jun-23 04:20N 34°42' E 135°15'0 0.0
2017-Jun-23 03:56N 34°42' E 135°15'0 0.0
2017-Jun-23 03:26N 34°42' E 135°15'0 0.0
2017-Jun-23 02:50N 34°42' E 135°15'0 0.0
2017-Jun-23 02:20N 34°42' E 135°15'0 0.0
2017-Jun-23 01:56N 34°42' E 135°15'0 0.0
2017-Jun-23 01:26N 34°42' E 135°15'0 0.0
2017-Jun-23 00:56N 34°42' E 135°15'0 0.0
2017-Jun-23 00:26N 34°42' E 135°15'0 0.0
2017-Jun-22 23:56N 34°42' E 135°15'0 0.0
2017-Jun-22 23:26N 34°42' E 135°15'0 0.0
2017-Jun-22 23:00N 34°42' E 135°15'2 4.6
2017-Jun-22 22:30N 34°40' E 135°15'3 5.2
2017-Jun-22 22:00N 34°37' E 135°15'2 3.2
2017-Jun-22 21:28N 34°37' E 135°13'0 0.0
2017-Jun-22 20:58N 34°37' E 135°13'0 0.1
2017-Jun-22 20:22N 34°37' E 135°13'0 0.1
2017-Jun-22 19:52N 34°37' E 135°13'0 0.0
2017-Jun-22 19:28N 34°37' E 135°13'0 0.0
2017-Jun-22 18:58N 34°37' E 135°13'0 0.0
2017-Jun-22 18:22N 34°37' E 135°13'0 0.0
2017-Jun-22 17:58N 34°37' E 135°13'0 0.0
2017-Jun-22 17:28N 34°37' E 135°13'0 0.0
2017-Jun-22 16:58N 34°37' E 135°13'0 0.0
2017-Jun-22 16:28N 34°37' E 135°13'0 0.0
2017-Jun-22 15:58N 34°37' E 135°13'0 0.0
2017-Jun-22 15:28N 34°37' E 135°13'0 0.0
2017-Jun-22 14:58N 34°37' E 135°13'0 0.0
2017-Jun-22 14:22N 34°37' E 135°13'0 0.0
2017-Jun-22 13:28N 34°37' E 135°13'0 0.1
2017-Jun-22 12:58N 34°37' E 135°13'0 0.0
2017-Jun-22 12:28N 34°37' E 135°13'0 0.1
2017-Jun-22 11:58N 34°37' E 135°13'3 7.4
2017-Jun-22 11:30N 34°36' E 135°17'713.1
2017-Jun-22 11:00N 34°33' E 135°25'0 0.0
2017-Jun-22 01:50N 34°34' E 135°25'0 0.7
2017-Jun-22 01:30N 34°33' E 135°25'510.3
2017-Jun-22 01:00N 34°33' E 135°19'5 9.7
2017-Jun-22 00:30N 34°29' E 135°15'611.5
2017-Jun-21 23:58N 34°25' E 135°09'511.9
2017-Jun-21 23:30N 34°22' E 135°04'611.0
2017-Jun-21 22:58N 34°17' E 134°59'511.1
2017-Jun-21 22:30N 34°12' E 134°58'611.6
2017-Jun-21 22:00N 34°07' E 134°56'  
2017-Jun-19 11:34N 31°05' E 122°01'111.5
2017-Jun-19 11:30N 31°05' E 122°01'6 9.3
2017-Jun-19 10:53N 31°08' E 121°55'4 9.4
2017-Jun-19 10:30N 31°10' E 121°51'510.4
2017-Jun-19 10:00N 31°14' E 121°47'510.9
2017-Jun-19 09:30N 31°18' E 121°43'611.2
2017-Jun-19 09:00N 31°22' E 121°38'611.4
2017-Jun-19 08:30N 31°24' E 121°32'510.5
2017-Jun-19 08:00N 31°28' E 121°28'510.7
2017-Jun-19 07:30N 31°31' E 121°23'611.9
2017-Jun-19 07:00N 31°35' E 121°18'714.1
2017-Jun-19 06:30N 31°40' E 121°12'4 0.1
2017-Jun-17 09:01N 31°42' E 121°09'014.1
2017-Jun-17 08:59N 31°42' E 121°09'714.1
2017-Jun-17 08:30N 31°38' E 121°15'713.7
2017-Jun-17 07:59N 31°32' E 121°21'612.2
2017-Jun-17 07:30N 31°29' E 121°26'510.3
2017-Jun-17 07:00N 31°25' E 121°31'510.4
2017-Jun-17 06:30N 31°23' E 121°36'611.7
2017-Jun-17 06:00N 31°20' E 121°42'611.9
2017-Jun-17 05:30N 31°15' E 121°46'713.5
2017-Jun-17 05:01N 31°10' E 121°52'612.5
2017-Jun-17 04:31N 31°07' E 121°57'610.9
2017-Jun-17 03:59N 31°04' E 122°04'612.7
2017-Jun-17 03:30N 31°03' E 122°11'910.6
2017-Jun-17 02:41N 31°02' E 122°21'313.3
2017-Jun-17 02:27N 31°02' E 122°24'612.3
2017-Jun-17 01:57N 31°00' E 122°31'612.3
2017-Jun-17 01:28N 30°59' E 122°38'3 0.2
2017-Jun-16 08:27N 31°01' E 122°41'  
Track history (hours):
 
Tides and Currents Weather Stations Pressure Air Temp Water Temp Dewpoint Dewpoint Depression Visibility Wind Speed Wind Dir Waves Ship Positions

Virgo Phoenix

Last reported at 2017-Jun-26 05:55 UTC. Time now 2017-Jun-28 22:43 UTC.
Position N 35°14' E 139°46'.

Length 96 m; draft 5.6 m.

Type: Ship (hazmat cat C). MMSI: 370795000.

Date/timePositionNaut miles runAvg speedWind from/ knotsBaromVisibWave heightAir tempDewpointWater temp
2017-Jun-26 05:55N 35°14' E 139°46'511.8
2017-Jun-26 05:30N 35°18' E 139°44'612.5
2017-Jun-26 05:01N 35°25' E 139°43'612.7
2017-Jun-26 04:30N 35°30' E 139°48'2 1.0
2017-Jun-26 02:13N 35°31' E 139°46'0 0.0
2017-Jun-26 01:55N 35°31' E 139°46'0 0.0
2017-Jun-26 01:25N 35°31' E 139°46'0 0.0
2017-Jun-26 00:55N 35°31' E 139°46'0 0.0
2017-Jun-26 00:25N 35°31' E 139°46'0 0.0
2017-Jun-25 23:55N 35°31' E 139°46'0 0.0
2017-Jun-25 23:29N 35°31' E 139°46'2 4.7
2017-Jun-25 23:00N 35°30' E 139°44'2 4.7
2017-Jun-25 22:31N 35°28' E 139°45'1 2.4
2017-Jun-25 21:58N 35°29' E 139°46'0 0.1
2017-Jun-25 21:28N 35°29' E 139°46'0 0.1
2017-Jun-25 20:58N 35°29' E 139°46'0 0.0
2017-Jun-25 20:28N 35°29' E 139°46'0 0.0
2017-Jun-25 19:58N 35°29' E 139°46'0 0.0
2017-Jun-25 19:28N 35°29' E 139°46'0 0.0
2017-Jun-25 18:58N 35°29' E 139°46'0 0.0
2017-Jun-25 18:28N 35°29' E 139°46'0 0.0
2017-Jun-25 17:58N 35°29' E 139°46'0 0.0
2017-Jun-25 17:28N 35°29' E 139°46'0 0.0
2017-Jun-25 16:58N 35°29' E 139°46'0 0.0
2017-Jun-25 16:28N 35°29' E 139°46'0 0.0
2017-Jun-25 15:58N 35°29' E 139°46'0 0.0
2017-Jun-25 15:28N 35°29' E 139°46'0 0.1
2017-Jun-25 14:58N 35°29' E 139°46'0 0.0
2017-Jun-25 14:28N 35°29' E 139°46'0 0.0
2017-Jun-25 13:28N 35°29' E 139°46'0 0.0
2017-Jun-25 12:58N 35°29' E 139°46'0 0.1
2017-Jun-25 12:28N 35°29' E 139°46'0 0.1
2017-Jun-25 11:58N 35°29' E 139°46'0 0.0
2017-Jun-25 11:28N 35°29' E 139°46'0 0.1
2017-Jun-25 10:58N 35°29' E 139°46'0 0.0
2017-Jun-25 10:28N 35°29' E 139°46'0 0.0
2017-Jun-25 09:58N 35°29' E 139°46'0 0.1
2017-Jun-25 09:28N 35°29' E 139°46'0 0.0
2017-Jun-25 08:58N 35°29' E 139°46'0 0.0
2017-Jun-25 08:28N 35°29' E 139°46'0 0.0
2017-Jun-25 07:58N 35°29' E 139°46'0 0.0
2017-Jun-25 07:28N 35°29' E 139°46'0 0.1
2017-Jun-25 06:58N 35°29' E 139°46'0 0.0
2017-Jun-25 06:28N 35°29' E 139°46'0 0.0
2017-Jun-25 05:58N 35°29' E 139°46'0 0.0
2017-Jun-25 05:28N 35°29' E 139°46'0 0.1
2017-Jun-25 04:58N 35°29' E 139°46'0 0.1
2017-Jun-25 04:28N 35°29' E 139°46'0 0.0
2017-Jun-25 03:58N 35°28' E 139°46'0 0.1
2017-Jun-25 03:28N 35°28' E 139°46'0 0.0
2017-Jun-25 02:58N 35°28' E 139°46'0 0.0
2017-Jun-25 02:28N 35°28' E 139°46'0 0.0
2017-Jun-25 01:58N 35°28' E 139°46'0 0.0
2017-Jun-25 01:28N 35°28' E 139°46'2 4.2
2017-Jun-25 01:00N 35°27' E 139°46'5 9.5
2017-Jun-25 00:30N 35°22' E 139°45'511.0
2017-Jun-25 00:00N 35°16' E 139°46'611.2
2017-Jun-24 23:30N 35°11' E 139°47'245 6.2
2017-Jun-23 08:05N 34°08' E 134°59'113.8
2017-Jun-23 08:00N 34°09' E 134°59'2313.1
2017-Jun-23 06:15N 34°30' E 135°11'414.0
2017-Jun-23 06:00N 34°32' E 135°14'713.4
2017-Jun-23 05:30N 34°39' E 135°16'4 7.3
2017-Jun-23 05:00N 34°42' E 135°15'0 0.0
2017-Jun-23 04:20N 34°42' E 135°15'0 0.0
2017-Jun-23 03:56N 34°42' E 135°15'0 0.0
2017-Jun-23 03:26N 34°42' E 135°15'0 0.0
2017-Jun-23 02:50N 34°42' E 135°15'0 0.0
2017-Jun-23 02:20N 34°42' E 135°15'0 0.0
2017-Jun-23 01:56N 34°42' E 135°15'0 0.0
2017-Jun-23 01:26N 34°42' E 135°15'0 0.0
2017-Jun-23 00:56N 34°42' E 135°15'0 0.0
2017-Jun-23 00:26N 34°42' E 135°15'0 0.0
2017-Jun-22 23:56N 34°42' E 135°15'0 0.0
2017-Jun-22 23:26N 34°42' E 135°15'0 0.0
2017-Jun-22 23:00N 34°42' E 135°15'2 4.6
2017-Jun-22 22:30N 34°40' E 135°15'3 5.2
2017-Jun-22 22:00N 34°37' E 135°15'2 3.2
2017-Jun-22 21:28N 34°37' E 135°13'0 0.0
2017-Jun-22 20:58N 34°37' E 135°13'0 0.1
2017-Jun-22 20:22N 34°37' E 135°13'0 0.1
2017-Jun-22 19:52N 34°37' E 135°13'0 0.0
2017-Jun-22 19:28N 34°37' E 135°13'0 0.0
2017-Jun-22 18:58N 34°37' E 135°13'0 0.0
2017-Jun-22 18:22N 34°37' E 135°13'0 0.0
2017-Jun-22 17:58N 34°37' E 135°13'0 0.0
2017-Jun-22 17:28N 34°37' E 135°13'0 0.0
2017-Jun-22 16:58N 34°37' E 135°13'0 0.0
2017-Jun-22 16:28N 34°37' E 135°13'0 0.0
2017-Jun-22 15:58N 34°37' E 135°13'0 0.0
2017-Jun-22 15:28N 34°37' E 135°13'0 0.0
2017-Jun-22 14:58N 34°37' E 135°13'0 0.0
2017-Jun-22 14:22N 34°37' E 135°13'0 0.0
2017-Jun-22 13:28N 34°37' E 135°13'0 0.1
2017-Jun-22 12:58N 34°37' E 135°13'0 0.0
2017-Jun-22 12:28N 34°37' E 135°13'0 0.1
2017-Jun-22 11:58N 34°37' E 135°13'3 7.4
2017-Jun-22 11:30N 34°36' E 135°17'713.1
2017-Jun-22 11:00N 34°33' E 135°25'0 0.0
2017-Jun-22 01:50N 34°34' E 135°25'0 0.7
2017-Jun-22 01:30N 34°33' E 135°25'510.3
2017-Jun-22 01:00N 34°33' E 135°19'5 9.7
2017-Jun-22 00:30N 34°29' E 135°15'611.5
2017-Jun-21 23:58N 34°25' E 135°09'511.9
2017-Jun-21 23:30N 34°22' E 135°04'611.0
2017-Jun-21 22:58N 34°17' E 134°59'511.1
2017-Jun-21 22:30N 34°12' E 134°58'611.6
2017-Jun-21 22:00N 34°07' E 134°56'  
2017-Jun-19 11:34N 31°05' E 122°01'111.5
2017-Jun-19 11:30N 31°05' E 122°01'6 9.3
2017-Jun-19 10:53N 31°08' E 121°55'4 9.4
2017-Jun-19 10:30N 31°10' E 121°51'510.4
2017-Jun-19 10:00N 31°14' E 121°47'510.9
2017-Jun-19 09:30N 31°18' E 121°43'611.2
2017-Jun-19 09:00N 31°22' E 121°38'611.4
2017-Jun-19 08:30N 31°24' E 121°32'510.5
2017-Jun-19 08:00N 31°28' E 121°28'510.7
2017-Jun-19 07:30N 31°31' E 121°23'611.9
2017-Jun-19 07:00N 31°35' E 121°18'714.1
2017-Jun-19 06:30N 31°40' E 121°12'4 0.1
2017-Jun-17 09:01N 31°42' E 121°09'014.1
2017-Jun-17 08:59N 31°42' E 121°09'714.1
2017-Jun-17 08:30N 31°38' E 121°15'713.7
2017-Jun-17 07:59N 31°32' E 121°21'612.2
2017-Jun-17 07:30N 31°29' E 121°26'510.3
2017-Jun-17 07:00N 31°25' E 121°31'510.4
2017-Jun-17 06:30N 31°23' E 121°36'611.7
2017-Jun-17 06:00N 31°20' E 121°42'611.9
2017-Jun-17 05:30N 31°15' E 121°46'713.5
2017-Jun-17 05:01N 31°10' E 121°52'612.5
2017-Jun-17 04:31N 31°07' E 121°57'610.9
2017-Jun-17 03:59N 31°04' E 122°04'612.7
2017-Jun-17 03:30N 31°03' E 122°11'910.6
2017-Jun-17 02:41N 31°02' E 122°21'313.3
2017-Jun-17 02:27N 31°02' E 122°24'612.3
2017-Jun-17 01:57N 31°00' E 122°31'612.3
2017-Jun-17 01:28N 30°59' E 122°38'3 0.2
2017-Jun-16 08:27N 31°01' E 122°41'  

Dump ship's entire track history